createdAt,value
2023-05-06T00:01:22.054Z,99.90
2023-05-06T00:03:49.195Z,99.90
2023-05-06T00:06:16.936Z,99.90
2023-05-06T00:08:43.808Z,99.90
2023-05-06T00:11:10.711Z,99.90
2023-05-06T00:13:37.999Z,99.90
2023-05-06T00:16:05.912Z,99.90
2023-05-06T00:18:32.897Z,99.90
2023-05-06T00:21:00.496Z,99.90
2023-05-06T00:23:27.362Z,99.90
2023-05-06T00:25:54.906Z,99.90
2023-05-06T00:28:21.845Z,99.90
2023-05-06T00:30:48.712Z,99.90
2023-05-06T00:33:15.692Z,99.90
2023-05-06T00:35:42.610Z,99.90
2023-05-06T00:38:12.794Z,99.90
2023-05-06T00:40:40.572Z,99.90
2023-05-06T00:43:07.562Z,99.90
2023-05-06T00:45:35.839Z,99.90
2023-05-06T00:48:04.348Z,99.90
2023-05-06T00:50:33.276Z,99.90
2023-05-06T00:53:01.876Z,99.90
2023-05-06T00:55:29.269Z,99.90
2023-05-06T00:57:57.100Z,99.90
2023-05-06T01:00:24.052Z,99.90
2023-05-06T01:02:51.578Z,99.90
2023-05-06T01:05:21.536Z,99.90
2023-05-06T01:08:11.570Z,99.90
2023-05-06T01:10:47.546Z,99.90
2023-05-06T01:13:51.502Z,99.90
2023-05-06T01:16:20.588Z,99.90
2023-05-06T01:18:49.963Z,99.90
2023-05-06T01:21:18.648Z,99.90
2023-05-06T01:28:03.817Z,99.90
2023-05-06T01:30:36.545Z,99.90
2023-05-06T01:33:19.472Z,99.90
2023-05-06T01:36:16.048Z,99.90
2023-05-06T01:38:54.172Z,99.90
2023-05-06T01:41:25.103Z,99.90
2023-05-06T01:43:54.814Z,99.90
2023-05-06T01:46:24.018Z,99.90
2023-05-06T01:48:54.746Z,99.90
2023-05-06T01:51:27.643Z,99.90
2023-05-06T01:53:55.391Z,99.90
2023-05-06T01:56:23.572Z,99.90
2023-05-06T01:58:50.734Z,99.90
2023-05-06T02:01:17.823Z,99.90
2023-05-06T02:03:44.863Z,99.90
2023-05-06T02:06:12.146Z,99.90
2023-05-06T02:16:20.367Z,99.90
2023-05-06T02:18:49.503Z,99.90
2023-05-06T02:21:16.751Z,99.90
2023-05-06T02:23:43.996Z,99.90
2023-05-06T02:26:11.205Z,99.90
2023-05-06T02:28:38.185Z,99.90
2023-05-06T02:31:05.234Z,99.90
2023-05-06T02:33:32.305Z,99.90
2023-05-06T02:35:59.301Z,99.90
2023-05-06T02:38:27.007Z,99.90
2023-05-06T02:40:54.011Z,99.90
2023-05-06T02:43:23.247Z,99.90
2023-05-06T02:45:50.513Z,99.90
2023-05-06T02:48:17.552Z,99.90
2023-05-06T02:50:45.004Z,99.90
2023-05-06T02:53:13.402Z,99.90
2023-05-06T02:55:40.447Z,99.90
2023-05-06T02:58:08.036Z,99.90
2023-05-06T03:00:35.415Z,99.90
2023-05-06T03:03:02.952Z,99.90
2023-05-06T03:05:29.976Z,99.90
2023-05-06T03:07:57.076Z,99.90
2023-05-06T03:10:24.133Z,99.90
2023-05-06T03:12:54.836Z,99.90
2023-05-06T03:15:22.129Z,99.90
2023-05-06T03:17:49.425Z,99.90
2023-05-06T03:27:41.368Z,99.90
2023-05-06T03:30:16.243Z,99.90
2023-05-06T03:32:44.994Z,99.90
2023-05-06T03:35:16.580Z,99.90
2023-05-06T03:37:47.209Z,99.90
2023-05-06T03:40:14.646Z,99.90
2023-05-06T03:42:42.103Z,99.90
2023-05-06T03:45:09.995Z,99.90
2023-05-06T03:47:38.252Z,99.90
2023-05-06T03:50:08.993Z,99.90
2023-05-06T03:52:37.383Z,99.90
2023-05-06T03:55:05.984Z,99.90
2023-05-06T03:57:34.238Z,99.90
2023-05-06T04:00:01.347Z,99.90
2023-05-06T04:02:29.596Z,99.90
2023-05-06T04:04:58.002Z,99.90
2023-05-06T04:07:25.019Z,99.90
2023-05-06T04:09:53.608Z,99.90
2023-05-06T04:12:21.317Z,99.90
2023-05-06T04:14:50.518Z,99.90
2023-05-06T04:17:17.877Z,99.90
2023-05-06T04:19:45.641Z,99.90
2023-05-06T04:22:12.621Z,99.90
2023-05-06T04:24:42.068Z,99.90
2023-05-06T04:27:10.850Z,99.90
2023-05-06T04:29:38.327Z,99.90
2023-05-06T04:32:05.495Z,99.90
2023-05-06T04:34:36.303Z,99.90
2023-05-06T04:37:05.736Z,99.90
2023-05-06T04:39:59.209Z,99.90
2023-05-06T04:42:26.563Z,99.90
2023-05-06T04:45:05.638Z,99.90
2023-05-06T04:47:36.144Z,99.90
2023-05-06T04:50:04.624Z,99.90
2023-05-06T04:52:32.276Z,99.90
2023-05-06T04:54:59.994Z,99.90
2023-05-06T04:57:27.669Z,99.90
2023-05-06T04:59:55.999Z,99.90
2023-05-06T05:02:23.240Z,99.90
2023-05-06T05:04:51.197Z,99.90
2023-05-06T05:07:19.095Z,99.90
2023-05-06T05:09:49.037Z,99.90
2023-05-06T05:12:16.696Z,99.90
2023-05-06T05:14:47.386Z,99.90
2023-05-06T05:17:15.644Z,99.90
2023-05-06T05:19:44.450Z,99.90
2023-05-06T05:22:13.024Z,99.90
2023-05-06T05:24:40.291Z,99.90
2023-05-06T05:27:07.639Z,99.90
2023-05-06T05:29:35.438Z,99.90
2023-05-06T05:32:06.139Z,99.90
2023-05-06T05:34:33.272Z,99.90
2023-05-06T05:37:01.306Z,99.90
2023-05-06T05:39:29.021Z,99.90
2023-05-06T05:41:56.370Z,99.90
2023-05-06T05:44:23.797Z,99.90
2023-05-06T05:46:51.258Z,99.90
2023-05-06T05:49:20.803Z,99.90
2023-05-06T05:51:50.388Z,99.90
2023-05-06T05:54:18.937Z,99.90
2023-05-06T05:56:46.501Z,99.90
2023-05-06T05:59:13.777Z,99.90
2023-05-06T06:01:41.772Z,99.90
2023-05-06T06:04:11.238Z,99.90
2023-05-06T06:06:40.176Z,99.90
2023-05-06T06:09:07.593Z,99.90
2023-05-06T06:11:37.013Z,99.90
2023-05-06T06:14:05.541Z,99.90
2023-05-06T06:16:34.610Z,99.90
2023-05-06T06:19:01.947Z,99.90
2023-05-06T06:21:29.369Z,99.90
2023-05-06T06:23:59.030Z,99.90
2023-05-06T06:26:29.534Z,99.90
2023-05-06T06:28:56.486Z,99.90
2023-05-06T06:31:24.089Z,99.90
2023-05-06T06:33:51.098Z,99.90
2023-05-06T06:36:18.565Z,99.90
2023-05-06T06:38:45.705Z,99.90
2023-05-06T06:41:13.415Z,99.90
2023-05-06T06:43:40.699Z,99.90
2023-05-06T06:46:17.116Z,99.90
2023-05-06T06:48:44.153Z,99.90
2023-05-06T06:51:11.483Z,99.90
2023-05-06T06:53:38.476Z,99.90
2023-05-06T06:56:10.444Z,99.90
2023-05-06T06:58:37.462Z,99.90
2023-05-06T07:01:05.211Z,99.90
2023-05-06T07:03:32.199Z,99.90
2023-05-06T07:05:59.536Z,99.90
2023-05-06T07:08:26.527Z,99.90
2023-05-06T07:10:53.693Z,99.90
2023-05-06T07:13:23.499Z,99.90
2023-05-06T07:15:50.775Z,99.90
2023-05-06T07:18:17.811Z,99.90
2023-05-06T07:20:44.981Z,99.90
2023-05-06T07:23:11.984Z,99.90
2023-05-06T07:25:39.467Z,99.90
2023-05-06T07:28:06.426Z,99.90
2023-05-06T07:30:33.628Z,99.90
2023-05-06T07:33:01.102Z,99.90
2023-05-06T07:35:28.416Z,99.90
2023-05-06T07:37:55.501Z,99.90
2023-05-06T07:40:23.129Z,99.90
2023-05-06T07:42:50.308Z,99.90
2023-05-06T07:45:17.666Z,99.90
2023-05-06T07:47:45.292Z,99.90
2023-05-06T07:50:13.173Z,99.90
2023-05-06T07:52:40.876Z,99.90
2023-05-06T07:55:10.367Z,99.90
2023-05-06T07:57:37.589Z,99.90
2023-05-06T08:00:06.210Z,99.90
2023-05-06T08:02:44.773Z,99.90
2023-05-06T08:05:12.957Z,99.90
2023-05-06T08:07:44.800Z,99.90
2023-05-06T08:10:11.950Z,99.90
2023-05-06T08:12:39.151Z,99.90
2023-05-06T08:15:07.315Z,99.90
2023-05-06T08:17:34.374Z,99.90
2023-05-06T08:20:01.979Z,99.90
2023-05-06T08:22:30.209Z,99.90
2023-05-06T08:24:57.557Z,99.90
2023-05-06T08:27:24.583Z,99.90
2023-05-06T08:29:51.554Z,99.90
2023-05-06T08:32:20.289Z,99.90
2023-05-06T08:34:47.411Z,99.90
2023-05-06T08:37:14.616Z,99.90
2023-05-06T08:39:41.963Z,99.90
2023-05-06T08:42:12.091Z,99.90
2023-05-06T08:44:39.187Z,99.90
2023-05-06T08:47:07.134Z,99.90
2023-05-06T08:49:34.235Z,99.90
2023-05-06T08:52:05.263Z,99.90
2023-05-06T08:54:35.790Z,99.90
2023-05-06T08:57:06.107Z,99.90
2023-05-06T08:59:34.132Z,99.90
2023-05-06T09:02:02.736Z,99.90
2023-05-06T09:04:30.691Z,99.90
2023-05-06T09:07:00.832Z,99.90
2023-05-06T09:09:28.173Z,99.90
2023-05-06T09:11:55.307Z,99.90
2023-05-06T09:14:22.716Z,99.90
2023-05-06T09:16:51.729Z,99.90
2023-05-06T09:19:20.929Z,99.90
2023-05-06T09:21:49.976Z,99.90
2023-05-06T09:24:17.598Z,99.90
2023-05-06T09:26:46.702Z,99.90
2023-05-06T09:29:13.754Z,99.90
2023-05-06T09:31:46.270Z,99.90
2023-05-06T09:34:14.913Z,99.90
2023-05-06T09:36:42.323Z,99.90
2023-05-06T09:39:10.399Z,99.90
2023-05-06T09:41:39.894Z,99.70
2023-05-06T09:44:08.466Z,98.70
2023-05-06T09:46:36.590Z,97.60
2023-05-06T09:49:03.933Z,98.90
2023-05-06T09:51:31.143Z,98.20
2023-05-06T09:53:59.401Z,96.10
2023-05-06T09:56:26.986Z,97.70
2023-05-06T09:58:57.762Z,96.00
2023-05-06T10:01:35.086Z,98.00
2023-05-06T10:04:09.508Z,96.40
2023-05-06T10:06:39.892Z,96.30
2023-05-06T10:09:10.481Z,95.80
2023-05-06T10:11:39.146Z,95.80
2023-05-06T10:14:07.663Z,97.20
2023-05-06T10:16:36.651Z,95.00
2023-05-06T10:19:06.652Z,95.20
2023-05-06T10:21:35.998Z,96.00
2023-05-06T10:24:11.713Z,94.90
2023-05-06T10:26:39.851Z,95.30
2023-05-06T10:29:11.918Z,95.10
2023-05-06T10:31:46.246Z,96.20
2023-05-06T10:34:13.842Z,94.80
2023-05-06T10:36:44.497Z,94.60
2023-05-06T10:39:14.267Z,91.30
2023-05-06T10:41:41.563Z,93.10
2023-05-06T10:44:10.137Z,94.40
2023-05-06T10:46:58.243Z,92.90
2023-05-06T10:49:25.554Z,92.40
2023-05-06T10:52:15.375Z,92.40
2023-05-06T10:54:51.939Z,91.30
2023-05-06T10:57:21.820Z,90.50
2023-05-06T10:59:49.409Z,91.60
2023-05-06T11:02:20.448Z,90.80
2023-05-06T11:04:52.133Z,86.40
2023-05-06T11:07:24.079Z,86.10
2023-05-06T11:10:02.916Z,90.10
2023-05-06T11:12:50.095Z,89.70
2023-05-06T11:15:40.523Z,83.30
2023-05-06T11:18:29.538Z,82.10
2023-05-06T11:21:03.187Z,81.60
2023-05-06T11:23:49.756Z,83.80
2023-05-06T11:26:17.084Z,78.00
2023-05-06T11:28:46.165Z,83.20
2023-05-06T11:31:14.292Z,77.10
2023-05-06T11:33:49.501Z,82.70
2023-05-06T11:36:18.235Z,74.00
2023-05-06T11:38:50.188Z,73.20
2023-05-06T11:41:17.913Z,74.40
2023-05-06T11:43:52.963Z,76.00
2023-05-06T11:46:21.755Z,72.80
2023-05-06T11:48:50.285Z,70.00
2023-05-06T11:51:23.158Z,69.20
2023-05-06T11:53:50.623Z,68.10
2023-05-06T11:56:17.737Z,68.80
2023-05-06T11:58:46.672Z,72.10
2023-05-06T12:01:13.717Z,73.30
2023-05-06T12:03:42.307Z,64.80
2023-05-06T12:06:09.756Z,66.90
2023-05-06T12:08:37.916Z,70.60
2023-05-06T12:11:08.313Z,71.40
2023-05-06T12:13:40.687Z,73.30
2023-05-06T12:16:08.695Z,72.40
2023-05-06T12:18:36.378Z,70.40
2023-05-06T12:21:04.447Z,67.50
2023-05-06T12:23:31.970Z,66.80
2023-05-06T12:26:04.744Z,64.20
2023-05-06T12:28:33.317Z,66.10
2023-05-06T12:31:01.412Z,64.90
2023-05-06T12:33:43.934Z,66.80
2023-05-06T12:36:11.648Z,66.50
2023-05-06T12:38:49.425Z,64.00
2023-05-06T12:41:17.311Z,60.00
2023-05-06T12:43:44.410Z,62.60
2023-05-06T12:46:21.773Z,66.00
2023-05-06T12:49:02.400Z,62.50
2023-05-06T12:51:31.164Z,60.70
2023-05-06T12:53:59.172Z,61.60
2023-05-06T12:56:26.316Z,59.00
2023-05-06T12:59:01.343Z,59.30
2023-05-06T13:01:28.838Z,57.70
2023-05-06T13:03:59.229Z,60.20
2023-05-06T13:06:26.285Z,62.80
2023-05-06T13:08:53.285Z,57.20
2023-05-06T13:11:22.265Z,59.40
2023-05-06T13:13:50.588Z,59.20
2023-05-06T13:16:17.761Z,63.10
2023-05-06T13:18:44.738Z,62.90
2023-05-06T13:21:13.344Z,61.70
2023-05-06T13:23:47.813Z,63.10
2023-05-06T13:26:15.744Z,63.40
2023-05-06T13:28:42.991Z,61.00
2023-05-06T13:31:10.591Z,59.80
2023-05-06T13:33:37.905Z,60.30
2023-05-06T13:36:08.568Z,58.70
2023-05-06T13:38:35.816Z,57.70
2023-05-06T13:41:03.155Z,59.60
2023-05-06T13:43:30.157Z,61.00
2023-05-06T13:45:58.208Z,58.60
2023-05-06T13:48:26.716Z,57.40
2023-05-06T13:50:53.721Z,56.10
2023-05-06T13:53:22.495Z,55.60
2023-05-06T13:55:49.646Z,59.50
2023-05-06T13:58:17.471Z,59.90
2023-05-06T14:00:44.548Z,59.30
2023-05-06T14:03:37.254Z,59.40
2023-05-06T14:06:04.582Z,61.30
2023-05-06T14:08:32.841Z,60.60
2023-05-06T14:10:59.947Z,61.60
2023-05-06T14:13:30.392Z,60.90
2023-05-06T14:15:57.604Z,60.00
2023-05-06T14:18:26.512Z,58.60
2023-05-06T14:20:54.262Z,59.40
2023-05-06T14:23:21.348Z,58.20
2023-05-06T14:25:49.227Z,57.60
2023-05-06T14:28:16.310Z,55.90
2023-05-06T14:30:43.765Z,58.60
2023-05-06T14:33:10.883Z,59.30
2023-05-06T14:35:42.364Z,59.30
2023-05-06T14:38:10.657Z,57.90
2023-05-06T14:40:38.930Z,57.70
2023-05-06T14:43:07.732Z,57.70
2023-05-06T14:45:34.942Z,56.70
2023-05-06T14:48:02.431Z,58.90
2023-05-06T14:50:30.674Z,56.80
2023-05-06T14:52:58.022Z,57.90
2023-05-06T14:55:25.626Z,55.40
2023-05-06T14:57:52.610Z,58.60
2023-05-06T15:00:20.568Z,57.20
2023-05-06T15:02:47.701Z,57.40
2023-05-06T15:05:15.148Z,56.80
2023-05-06T15:07:42.466Z,57.80
2023-05-06T15:10:09.598Z,57.00
2023-05-06T15:12:37.281Z,59.20
2023-05-06T15:15:05.646Z,58.80
2023-05-06T15:17:32.793Z,59.80
2023-05-06T15:19:59.765Z,61.30
2023-05-06T15:22:26.854Z,57.90
2023-05-06T15:24:53.801Z,56.10
2023-05-06T15:27:20.889Z,58.70
2023-05-06T15:29:47.996Z,58.20
2023-05-06T15:32:15.081Z,56.90
2023-05-06T15:34:42.389Z,57.30
2023-05-06T15:37:10.435Z,58.20
2023-05-06T15:39:38.289Z,58.70
2023-05-06T15:42:05.616Z,58.70
2023-05-06T15:44:33.932Z,58.70
2023-05-06T15:47:01.153Z,60.10
2023-05-06T15:52:00.877Z,58.90
2023-05-06T15:54:28.873Z,59.20
2023-05-06T15:56:56.644Z,59.10
2023-05-06T15:59:24.433Z,56.80
2023-05-06T16:02:25.412Z,57.20
2023-05-06T16:04:39.721Z,57.70
2023-05-06T16:07:07.794Z,58.30
2023-05-06T16:09:35.076Z,59.70
2023-05-06T16:12:02.240Z,61.10
2023-05-06T16:14:29.097Z,59.80
2023-05-06T16:16:56.197Z,61.00
2023-05-06T16:19:23.260Z,62.30
2023-05-06T16:21:50.472Z,61.70
2023-05-06T16:24:17.425Z,60.20
2023-05-06T16:26:44.543Z,61.40
2023-05-06T16:29:11.442Z,60.30
2023-05-06T16:31:38.541Z,60.80
2023-05-06T16:36:33.262Z,63.60
2023-05-06T16:39:00.221Z,63.80
2023-05-06T16:41:27.263Z,64.60
2023-05-06T16:43:54.312Z,64.80
2023-05-06T16:46:23.475Z,62.90
2023-05-06T16:48:53.140Z,62.60
2023-05-06T16:51:20.305Z,63.00
2023-05-06T16:53:47.314Z,63.70
2023-05-06T16:56:14.253Z,66.20
2023-05-06T16:58:42.531Z,68.00
2023-05-06T17:01:09.814Z,66.20
2023-05-06T17:03:37.974Z,66.60
2023-05-06T17:06:05.270Z,66.80
2023-05-06T17:08:36.285Z,67.50
2023-05-06T17:11:06.390Z,66.40
2023-05-06T17:13:33.959Z,68.90
2023-05-06T17:16:01.132Z,69.60
2023-05-06T17:18:28.378Z,69.70
2023-05-06T17:20:57.407Z,70.50
2023-05-06T17:23:24.821Z,69.90
2023-05-06T17:25:51.965Z,69.70
2023-05-06T17:28:19.308Z,69.40
2023-05-06T17:30:46.649Z,69.50
2023-05-06T17:33:13.955Z,69.70
2023-05-06T17:35:40.874Z,70.30
2023-05-06T17:38:08.295Z,71.00
2023-05-06T17:40:35.356Z,70.30
2023-05-06T17:43:02.285Z,73.00
2023-05-06T17:45:29.350Z,74.00
2023-05-06T17:47:56.884Z,74.10
2023-05-06T17:50:23.901Z,75.10
2023-05-06T17:52:52.888Z,74.80
2023-05-06T17:55:23.512Z,74.30
2023-05-06T17:57:52.544Z,75.00
2023-05-06T18:00:19.758Z,75.30
2023-05-06T18:02:47.087Z,75.80
2023-05-06T18:05:14.339Z,75.90
2023-05-06T18:07:41.720Z,76.50
2023-05-06T18:10:09.123Z,77.40
2023-05-06T18:12:36.457Z,77.80
2023-05-06T18:15:03.597Z,79.40
2023-05-06T18:17:30.817Z,80.20
2023-05-06T18:19:57.789Z,81.20
2023-05-06T18:22:24.835Z,82.00
2023-05-06T18:24:55.249Z,82.60
2023-05-06T18:27:23.140Z,83.50
2023-05-06T18:29:50.163Z,83.10
2023-05-06T18:32:20.460Z,83.00
2023-05-06T18:34:47.466Z,84.50
2023-05-06T18:37:14.419Z,87.00
2023-05-06T18:39:42.129Z,88.00
2023-05-06T18:42:09.492Z,87.50
2023-05-06T18:44:36.560Z,87.90
2023-05-06T18:47:03.525Z,88.20
2023-05-06T18:49:31.136Z,89.10
2023-05-06T18:51:58.081Z,89.50
2023-05-06T18:54:24.954Z,89.30
2023-05-06T18:56:51.938Z,90.10
2023-05-06T18:59:19.743Z,90.60
2023-05-06T19:01:46.794Z,91.00
2023-05-06T19:04:13.718Z,91.20
2023-05-06T19:06:41.042Z,91.40
2023-05-06T19:09:08.180Z,91.60
2023-05-06T19:11:35.476Z,91.70
2023-05-06T19:14:02.780Z,93.00
2023-05-06T19:16:29.783Z,94.60
2023-05-06T19:18:56.749Z,95.00
2023-05-06T19:21:23.713Z,95.00
2023-05-06T19:23:50.786Z,95.00
2023-05-06T19:26:17.583Z,95.50
2023-05-06T19:28:44.412Z,96.10
2023-05-06T19:31:11.724Z,96.40
2023-05-06T19:33:39.419Z,96.60
2023-05-06T19:36:06.909Z,96.70
2023-05-06T19:38:34.332Z,97.60
2023-05-06T19:41:01.457Z,97.80
2023-05-06T19:43:28.551Z,98.90
2023-05-06T19:45:56.033Z,99.30
2023-05-06T19:48:23.916Z,99.80
2023-05-06T19:50:53.769Z,99.50
2023-05-06T19:53:22.637Z,99.70
2023-05-06T19:55:49.595Z,99.30
2023-05-06T19:58:17.271Z,99.30
2023-05-06T20:00:45.350Z,99.80
2023-05-06T20:03:12.744Z,99.90
2023-05-06T20:05:39.753Z,99.90
2023-05-06T20:08:10.924Z,99.90
2023-05-06T20:10:38.486Z,99.90
2023-05-06T20:13:06.560Z,99.90
2023-05-06T20:15:33.839Z,99.90
2023-05-06T20:18:00.934Z,99.90
2023-05-06T20:20:34.160Z,99.90
2023-05-06T20:23:02.030Z,99.90
2023-05-06T20:25:29.680Z,99.90
2023-05-06T20:27:58.104Z,99.90
2023-05-06T20:30:26.066Z,99.90
2023-05-06T20:32:52.954Z,99.90
2023-05-06T20:35:19.837Z,99.90
2023-05-06T20:37:46.929Z,99.90
2023-05-06T20:40:14.428Z,99.90
2023-05-06T20:42:41.335Z,99.90
2023-05-06T20:45:09.172Z,99.90
2023-05-06T20:47:36.704Z,99.90
2023-05-06T20:50:03.779Z,99.90
2023-05-06T20:52:30.694Z,99.90
2023-05-06T20:54:58.164Z,99.90
2023-05-06T20:57:25.264Z,99.90
2023-05-06T20:59:52.632Z,99.90
2023-05-06T21:02:19.712Z,99.90
2023-05-06T21:04:46.971Z,99.90
2023-05-06T21:07:14.017Z,99.90
2023-05-06T21:09:40.828Z,99.90
2023-05-06T21:12:07.662Z,99.90
2023-05-06T21:14:34.582Z,99.90
2023-05-06T21:17:01.549Z,99.90
2023-05-06T21:19:28.402Z,99.90
2023-05-06T21:21:56.143Z,99.90
2023-05-06T21:24:23.000Z,99.90
2023-05-06T21:26:51.282Z,99.90
2023-05-06T21:29:18.323Z,99.90
2023-05-06T21:31:45.216Z,99.90
2023-05-06T21:34:12.060Z,99.90
2023-05-06T21:36:38.902Z,99.90
2023-05-06T21:39:08.547Z,99.90
2023-05-06T21:41:36.120Z,99.90
2023-05-06T21:44:07.835Z,99.90
2023-05-06T21:46:36.771Z,99.90
2023-05-06T21:49:03.916Z,99.90
2023-05-06T21:51:32.890Z,99.90
2023-05-06T21:53:59.773Z,99.90
2023-05-06T21:56:26.996Z,99.90
2023-05-06T21:58:55.808Z,99.90
2023-05-06T22:01:26.066Z,99.90
2023-05-06T22:03:53.946Z,99.90
2023-05-06T22:06:21.615Z,99.90
2023-05-06T22:08:48.461Z,99.90
2023-05-06T22:11:15.838Z,99.90
2023-05-06T22:13:42.672Z,99.90
2023-05-06T22:16:09.852Z,99.90
2023-05-06T22:18:41.148Z,99.90
2023-05-06T22:21:08.749Z,99.90
2023-05-06T22:23:35.840Z,99.90
2023-05-06T22:26:02.773Z,99.90
2023-05-06T22:28:29.635Z,99.90
2023-05-06T22:30:56.530Z,99.90
2023-05-06T22:33:23.433Z,99.90
2023-05-06T22:35:50.288Z,99.90
2023-05-06T22:38:17.156Z,99.90
2023-05-06T22:40:44.148Z,99.90
2023-05-06T22:43:10.971Z,99.90
2023-05-06T22:45:37.880Z,99.90
2023-05-06T22:48:05.503Z,99.90
2023-05-06T22:50:32.847Z,99.90
2023-05-06T22:53:04.840Z,99.90
2023-05-06T22:55:38.372Z,99.90
2023-05-06T22:58:05.416Z,99.90
2023-05-06T23:00:32.550Z,99.90
2023-05-06T23:02:59.442Z,99.90
2023-05-06T23:05:26.330Z,99.90
2023-05-06T23:07:53.232Z,99.90
2023-05-06T23:10:20.275Z,99.90
2023-05-06T23:12:47.190Z,99.90
2023-05-06T23:15:14.098Z,99.90
2023-05-06T23:17:41.051Z,99.90
2023-05-06T23:20:08.716Z,99.90
2023-05-06T23:22:35.670Z,99.90
2023-05-06T23:25:02.978Z,99.90
2023-05-06T23:27:29.819Z,99.90
2023-05-06T23:29:56.798Z,99.90
2023-05-06T23:32:23.578Z,99.90
2023-05-06T23:34:52.422Z,99.90
2023-05-06T23:37:19.312Z,99.90
2023-05-06T23:39:47.591Z,99.90
2023-05-06T23:42:14.447Z,99.90
2023-05-06T23:44:41.274Z,99.90
2023-05-06T23:47:08.223Z,99.90
2023-05-06T23:49:35.877Z,99.90
2023-05-06T23:52:03.250Z,99.90
2023-05-06T23:54:30.314Z,99.90
2023-05-06T23:56:57.230Z,99.90
2023-05-06T23:59:24.046Z,99.90
